Terminal Aerodrome Forecast
Issued by NWS La Crosse, WI

Home | Current Version | Previous Version | Text Only | Print | Product List | Glossary On
Versions: 1 2 3 4 5 6 7 8 9 10 11 12 13 14 15 16 17 18 19 20 21 22 23 24 25 26 27 28 29 30 31 32 33
000
FTUS43 KARX 210100 AAA
TAFRST
TAF AMD
KRST 210100Z 2101/2124 32008KT P6SM -SHRA BKN070
     FM210300 31013KT P6SM SCT050
     FM210900 31013KT P6SM BKN020
     FM211800 34014G22KT P6SM BKN030=

USA.gov is the U.S. government's official web portal to all federal, state and local government web resources and services.